Time;durP1;ratioP1;P1;durP2;ratioP2;P2;SDS_P1;SDS_P2;PMS_P1;PMS_P2;Temp;Humidity;BMP_temperature;BMP_pressure;BME280_temperature;BME280_humidity;BME280_pressure;Samples;Min_cycle;Max_cycle;Signal;HPM_P1;HPM_P2
2023/05/27 00:01:30;;;;;;;18.40;5.38;;;;;;;14.23;57.72;103136.97;5091295;28;20498;-45
2023/05/27 00:03:55;;;;;;;24.40;5.65;;;;;;;14.26;57.69;103126.59;5091076;28;20071;-49
2023/05/27 00:06:20;;;;;;;18.65;5.22;;;;;;;14.16;57.32;103124.50;5091407;28;20035;-45
2023/05/27 00:08:46;;;;;;;14.50;4.50;;;;;;;13.99;57.67;103126.53;5091715;28;20526;-46
2023/05/27 00:11:11;;;;;;;16.75;4.90;;;;;;;13.96;57.91;103120.31;5090674;28;20517;-44
2023/05/27 00:13:36;;;;;;;17.30;5.07;;;;;;;14.29;56.70;103120.56;5090016;28;20036;-44
2023/05/27 00:16:02;;;;;;;14.70;4.65;;;;;;;14.14;57.08;103128.81;5089839;28;20035;-49
2023/05/27 00:18:27;;;;;;;17.25;4.88;;;;;;;14.22;56.67;103122.97;5088478;28;20036;-45
2023/05/27 00:20:53;;;;;;;19.30;4.80;;;;;;;14.20;56.66;103116.81;5090378;28;20039;-47
2023/05/27 00:23:18;;;;;;;15.93;4.78;;;;;;;14.18;56.88;103118.47;5089525;28;20040;-50
2023/05/27 00:25:43;;;;;;;21.42;5.03;;;;;;;14.10;56.82;103117.31;5089990;28;20549;-46
2023/05/27 00:28:09;;;;;;;16.27;4.78;;;;;;;14.00;56.99;103111.69;5089836;28;20035;-45
2023/05/27 00:30:34;;;;;;;17.50;4.88;;;;;;;14.06;57.18;103115.44;5090556;28;20039;-49
2023/05/27 00:32:59;;;;;;;15.60;4.60;;;;;;;13.94;57.11;103106.25;5090773;28;20145;-46
2023/05/27 00:35:25;;;;;;;15.52;4.38;;;;;;;14.10;56.65;103106.81;5089849;28;20459;-46
2023/05/27 00:37:50;;;;;;;18.98;4.63;;;;;;;13.86;57.15;103105.97;5090876;28;20063;-45
2023/05/27 00:40:20;;;;;;;16.40;4.38;;;;;;;13.84;57.46;103115.53;5089758;28;20032;-45
2023/05/27 00:42:46;;;;;;;18.23;4.68;;;;;;;13.95;56.88;103105.41;5090095;28;20032;-46
2023/05/27 00:45:12;;;;;;;18.48;4.32;;;;;;;14.05;56.32;103105.75;5088849;28;20088;-51
2023/05/27 00:47:37;;;;;;;15.95;4.35;;;;;;;14.00;56.67;103114.31;5090445;28;20043;-50
2023/05/27 00:50:03;;;;;;;15.35;4.30;;;;;;;14.10;56.18;103116.41;5089055;28;20040;-46
2023/05/27 00:52:29;;;;;;;18.48;4.28;;;;;;;13.87;56.77;103118.22;5089814;28;20036;-44
2023/05/27 00:54:56;;;;;;;15.20;4.70;;;;;;;13.85;56.75;103109.41;5089523;28;20123;-46
2023/05/27 00:57:21;;;;;;;15.88;4.30;;;;;;;13.92;56.57;103110.53;5089592;28;20032;-46
2023/05/27 00:59:47;;;;;;;16.48;4.30;;;;;;;13.91;56.27;103099.13;5089715;28;20047;-45
2023/05/27 01:02:12;;;;;;;18.27;4.60;;;;;;;13.93;56.32;103105.34;5089008;28;20036;-47
2023/05/27 01:04:38;;;;;;;16.77;4.30;;;;;;;13.88;56.59;103101.66;5089372;28;20109;-44
2023/05/27 01:07:21;;;;;;;15.60;4.22;;;;;;;13.89;56.41;103107.81;5089049;28;20414;-46
2023/05/27 01:09:53;;;;;;;16.20;4.13;;;;;;;13.76;56.76;103099.50;5089767;28;20502;-46
2023/05/27 01:12:29;;;;;;;15.93;4.20;;;;;;;13.73;56.84;103101.09;5088597;28;20487;-47
2023/05/27 01:14:57;;;;;;;14.23;3.80;;;;;;;13.82;56.60;103090.97;5088894;28;20032;-46
2023/05/27 01:17:26;;;;;;;17.08;4.40;;;;;;;13.64;57.29;103093.81;5089175;28;20123;-49
2023/05/27 01:19:52;;;;;;;14.38;3.95;;;;;;;13.43;58.01;103086.91;5089711;28;20046;-46
2023/05/27 01:22:19;;;;;;;18.48;4.05;;;;;;;13.30;58.29;103086.44;5088960;28;20158;-46
2023/05/27 01:24:46;;;;;;;15.63;4.20;;;;;;;13.61;57.24;103096.31;5089499;28;20275;-44
2023/05/27 01:27:11;;;;;;;17.25;4.28;;;;;;;13.47;57.85;103086.19;5089389;28;20036;-49
2023/05/27 01:29:40;;;;;;;18.23;4.28;;;;;;;13.30;58.22;103089.06;5089530;28;20486;-45
2023/05/27 01:32:16;;;;;;;11.57;3.95;;;;;;;13.57;57.42;103091.81;5089054;28;20028;-45
2023/05/27 01:35:01;;;;;;;12.80;3.92;;;;;;;13.71;56.86;103097.56;5093498;28;20040;-50
2023/05/27 01:37:31;;;;;;;14.80;3.65;;;;;;;13.56;57.61;103095.28;5093171;28;20093;-47
2023/05/27 01:39:56;;;;;;;21.33;4.50;;;;;;;13.30;58.19;103094.31;5092271;28;20043;-49
2023/05/27 01:42:22;;;;;;;12.65;4.18;;;;;;;13.23;58.57;103096.66;5093826;28;20043;-49
2023/05/27 01:44:49;;;;;;;14.30;3.88;;;;;;;13.55;57.51;103089.97;5094643;28;20128;-44
2023/05/27 01:47:14;;;;;;;15.63;4.25;;;;;;;13.28;58.06;103096.00;5093683;28;20374;-47
2023/05/27 01:49:40;;;;;;;13.82;3.80;;;;;;;13.49;57.64;103101.13;5093911;28;20032;-44
2023/05/27 01:52:06;;;;;;;13.85;3.55;;;;;;;13.29;58.19;103100.41;5092411;28;20065;-44
2023/05/27 01:54:31;;;;;;;12.70;3.95;;;;;;;13.10;58.55;103097.88;5093061;28;20040;-45
2023/05/27 01:56:57;;;;;;;15.77;4.50;;;;;;;13.39;58.00;103096.38;5092668;28;20552;-48
2023/05/27 01:59:22;;;;;;;10.77;3.30;;;;;;;13.26;58.30;103088.91;5092878;28;20123;-44
2023/05/27 02:01:47;;;;;;;14.77;4.00;;;;;;;13.40;57.96;103093.81;5092602;28;20059;-45
2023/05/27 02:04:13;;;;;;;14.43;3.60;;;;;;;13.41;57.82;103089.47;5092473;28;20054;-47
2023/05/27 02:06:38;;;;;;;16.50;3.85;;;;;;;13.08;58.70;103094.31;5093850;28;20024;-47
2023/05/27 02:09:04;;;;;;;14.82;3.95;;;;;;;13.25;58.51;103089.72;5092436;28;20040;-49
2023/05/27 02:11:29;;;;;;;10.80;3.33;;;;;;;13.39;57.70;103089.41;5092957;28;20043;-48
2023/05/27 02:13:55;;;;;;;11.55;3.88;;;;;;;13.28;58.00;103090.75;5091766;28;20036;-46
2023/05/27 02:16:21;;;;;;;9.55;3.70;;;;;;;13.27;58.10;103088.06;5092507;28;20036;-47
2023/05/27 02:18:50;;;;;;;14.23;3.72;;;;;;;13.12;58.85;103088.38;5093376;28;20503;-44
2023/05/27 02:21:15;;;;;;;12.68;3.80;;;;;;;13.16;58.68;103094.63;5093376;28;20406;-44
2023/05/27 02:23:41;;;;;;;13.32;3.97;;;;;;;13.05;58.83;103102.06;5092069;28;20043;-44
2023/05/27 02:26:06;;;;;;;12.32;3.67;;;;;;;13.06;59.22;103095.06;5091455;28;20032;-49
2023/05/27 02:28:31;;;;;;;14.32;3.65;;;;;;;13.20;58.43;103096.53;5092610;28;20040;-46
2023/05/27 02:30:58;;;;;;;14.00;3.78;;;;;;;13.11;58.79;103098.78;5092607;28;20032;-46
2023/05/27 02:33:23;;;;;;;12.88;3.95;;;;;;;13.17;58.70;103099.94;5092739;28;20028;-44
2023/05/27 02:35:48;;;;;;;10.20;3.58;;;;;;;13.16;58.51;103094.63;5092989;28;20442;-46
2023/05/27 02:38:14;;;;;;;15.35;3.80;;;;;;;13.10;58.79;103092.66;5074832;28;20165;-47
2023/05/27 02:40:39;;;;;;;12.13;3.80;;;;;;;12.95;59.12;103090.31;5093615;28;20036;-46
2023/05/27 02:43:05;;;;;;;12.32;3.63;;;;;;;12.94;59.68;103091.13;5092675;28;20494;-48
2023/05/27 02:45:30;;;;;;;10.82;3.47;;;;;;;13.08;58.88;103090.78;5093588;28;20043;-45
2023/05/27 02:47:56;;;;;;;13.18;3.72;;;;;;;12.98;59.19;103087.84;5092619;28;20028;-46
2023/05/27 02:50:22;;;;;;;9.88;3.35;;;;;;;12.95;59.20;103090.31;5074682;28;20159;-48
2023/05/27 02:52:47;;;;;;;12.50;3.60;;;;;;;12.96;59.23;103078.13;5091937;28;20032;-49
2023/05/27 02:55:12;;;;;;;10.25;3.15;;;;;;;12.91;59.24;103088.41;5091384;28;21004;-46
2023/05/27 02:57:38;;;;;;;10.25;3.20;;;;;;;12.92;59.38;103087.59;5091827;28;20444;-48
2023/05/27 03:00:04;;;;;;;8.40;3.30;;;;;;;12.91;59.39;103084.91;5090994;28;20043;-48
2023/05/27 03:02:29;;;;;;;10.70;4.20;;;;;;;12.59;60.44;103083.63;5091304;28;20098;-45
2023/05/27 03:04:55;;;;;;;15.10;3.40;;;;;;;12.74;60.43;103083.34;5091069;28;20499;-49
2023/05/27 03:07:20;;;;;;;10.68;3.45;;;;;;;12.80;60.04;103092.34;5091679;28;20024;-48
2023/05/27 03:09:46;;;;;;;15.48;3.80;;;;;;;12.79;59.96;103085.31;5073864;28;20032;-44
2023/05/27 03:12:11;;;;;;;9.75;3.20;;;;;;;12.83;59.91;103088.94;5091010;28;20047;-46
2023/05/27 03:14:36;;;;;;;9.63;3.70;;;;;;;12.80;59.69;103094.97;5091548;28;20067;-49
2023/05/27 03:17:02;;;;;;;12.25;3.33;;;;;;;12.79;59.85;103090.56;5091338;28;20089;-47
2023/05/27 03:19:27;;;;;;;8.82;3.40;;;;;;;12.75;59.87;103088.63;5091401;28;20545;-44
2023/05/27 03:21:52;;;;;;;13.98;3.50;;;;;;;12.70;60.25;103089.28;5092029;28;20036;-45
2023/05/27 03:24:18;;;;;;;12.95;3.70;;;;;;;12.62;60.38;103090.72;5091040;28;20063;-45
2023/05/27 03:26:43;;;;;;;12.80;3.50;;;;;;;12.56;60.78;103091.38;5091494;28;20060;-48
2023/05/27 03:29:08;;;;;;;10.02;3.38;;;;;;;12.59;60.51;103087.13;5090650;28;20048;-45
2023/05/27 03:31:34;;;;;;;11.77;3.50;;;;;;;12.63;60.57;103095.09;5091343;28;20039;-45
2023/05/27 03:33:59;;;;;;;12.10;3.80;;;;;;;12.59;60.69;103095.00;5091807;28;20039;-48
2023/05/27 03:36:25;;;;;;;12.25;3.55;;;;;;;12.63;60.61;103084.63;5091614;28;20032;-46
2023/05/27 03:38:50;;;;;;;11.05;3.42;;;;;;;12.67;60.41;103086.56;5091221;28;20040;-45
2023/05/27 03:41:15;;;;;;;13.02;3.45;;;;;;;12.33;61.76;103094.75;5090839;28;20081;-44
2023/05/27 03:43:41;;;;;;;11.45;3.78;;;;;;;12.57;60.99;103086.19;5091084;28;20132;-47
2023/05/27 03:46:07;;;;;;;9.70;3.40;;;;;;;12.56;60.91;103087.00;5090188;28;20482;-47
2023/05/27 03:48:33;;;;;;;12.48;3.47;;;;;;;12.54;61.14;103074.72;5089620;28;20044;-46
2023/05/27 03:50:58;;;;;;;11.52;3.60;;;;;;;12.59;61.15;103071.44;5090316;28;20035;-46
2023/05/27 03:53:23;;;;;;;12.40;3.60;;;;;;;12.60;61.28;103070.63;5090245;28;20398;-45
2023/05/27 03:55:49;;;;;;;12.35;3.55;;;;;;;12.54;61.30;103070.38;5090332;28;20418;-46
2023/05/27 03:58:14;;;;;;;11.65;3.80;;;;;;;12.37;61.89;103074.03;5090059;28;20490;-46
2023/05/27 04:00:41;;;;;;;12.43;3.80;;;;;;;12.37;61.99;103060.94;5090845;28;20131;-50
2023/05/27 04:03:06;;;;;;;11.20;3.60;;;;;;;12.56;61.62;103054.75;5090315;28;20194;-45
2023/05/27 04:05:32;;;;;;;10.98;3.70;;;;;;;12.67;61.12;103049.91;5090929;28;20402;-43
2023/05/27 04:07:57;;;;;;;12.25;3.90;;;;;;;12.59;61.23;103053.13;5090960;28;20036;-46
2023/05/27 04:10:23;;;;;;;15.13;3.55;;;;;;;12.67;61.35;103056.06;5091407;28;20077;-49
2023/05/27 04:12:48;;;;;;;12.18;3.85;;;;;;;12.74;61.14;103058.09;5090158;28;20046;-45
2023/05/27 04:15:13;;;;;;;12.07;3.70;;;;;;;12.67;61.48;103063.91;5092182;28;20058;-44
2023/05/27 04:17:39;;;;;;;10.15;3.60;;;;;;;12.69;61.23;103063.94;5092644;28;20039;-45
2023/05/27 04:20:13;;;;;;;11.50;3.47;;;;;;;12.75;61.43;103062.44;5091465;28;20040;-46
2023/05/27 04:22:39;;;;;;;15.48;4.00;;;;;;;12.84;61.39;103057.59;5092682;28;20036;-45
2023/05/27 04:25:05;;;;;;;12.13;3.60;;;;;;;12.91;60.99;103057.00;5090770;28;20100;-46
2023/05/27 04:27:30;;;;;;;14.27;3.65;;;;;;;12.97;60.66;103065.09;5090563;28;20036;-47
2023/05/27 04:29:56;;;;;;;11.70;3.88;;;;;;;13.04;60.64;103066.22;5089853;28;20509;-53
2023/05/27 04:32:21;;;;;;;13.00;3.58;;;;;;;12.95;60.96;103071.97;5089899;28;20070;-45
2023/05/27 04:34:47;;;;;;;11.65;3.58;;;;;;;12.89;61.38;103063.91;5090343;28;20040;-46
2023/05/27 04:37:12;;;;;;;13.48;3.70;;;;;;;13.03;60.89;103064.44;5089693;28;20032;-49
2023/05/27 04:39:45;;;;;;;9.25;3.40;;;;;;;13.28;60.41;103064.56;5090502;28;20310;-45
2023/05/27 04:42:10;;;;;;;12.07;3.72;;;;;;;13.22;60.38;103064.31;5089651;28;20032;-46
2023/05/27 04:44:35;;;;;;;14.00;3.80;;;;;;;13.30;60.20;103065.47;5089876;28;20108;-46
2023/05/27 04:47:01;;;;;;;11.98;3.47;;;;;;;13.58;59.61;103064.78;5089447;28;20036;-48
2023/05/27 04:49:26;;;;;;;9.35;3.35;;;;;;;13.58;59.51;103064.78;5089640;28;20028;-45
2023/05/27 04:51:51;;;;;;;13.93;3.63;;;;;;;13.53;59.72;103066.34;5089844;28;20063;-47
2023/05/27 04:54:17;;;;;;;11.88;3.47;;;;;;;13.78;58.91;103065.50;5089470;28;20036;-44
2023/05/27 04:56:43;;;;;;;11.52;3.65;;;;;;;13.81;58.97;103074.34;5089943;28;20525;-46
2023/05/27 04:59:16;;;;;;;12.57;3.78;;;;;;;14.00;58.17;103075.88;5089804;28;20093;-46
2023/05/27 05:02:09;;;;;;;16.60;5.68;;;;;;;14.04;58.36;103067.25;5090345;28;20046;-47
2023/05/27 05:04:32;;;;;;;15.35;6.07;;;;;;;14.28;57.65;103061.03;5089248;28;20528;-45
2023/05/27 05:06:58;;;;;;;12.40;4.00;;;;;;;14.27;57.98;103057.56;5089744;28;20040;-46
2023/05/27 05:09:23;;;;;;;12.73;3.75;;;;;;;14.56;57.76;103061.16;5093560;28;20101;-46
2023/05/27 05:11:48;;;;;;;12.88;4.03;;;;;;;14.90;56.27;103063.06;5093849;28;20086;-43
2023/05/27 05:14:13;;;;;;;14.40;3.42;;;;;;;15.86;54.25;103058.84;5093405;28;20035;-45
2023/05/27 05:16:39;;;;;;;13.32;3.55;;;;;;;17.24;50.19;103041.06;5093859;28;20039;-45
2023/05/27 05:19:05;;;;;;;13.52;4.10;;;;;;;18.02;47.33;103040.81;5093862;28;20052;-48
2023/05/27 05:21:30;;;;;;;13.27;3.60;;;;;;;18.81;44.43;103041.19;5095033;28;20462;-47
2023/05/27 05:23:56;;;;;;;14.80;3.70;;;;;;;19.40;44.14;103036.63;5093467;28;20583;-46
2023/05/27 05:26:21;;;;;;;13.23;3.92;;;;;;;20.17;41.37;103031.25;5093632;28;20040;-44
2023/05/27 05:28:46;;;;;;;18.10;3.85;;;;;;;20.42;39.91;103027.06;5093655;28;20036;-46
2023/05/27 05:31:12;;;;;;;13.75;3.78;;;;;;;20.82;39.73;103026.41;5093099;28;20055;-50
2023/05/27 05:33:37;;;;;;;11.77;3.70;;;;;;;20.92;38.53;103028.22;5092811;28;20047;-51
2023/05/27 05:36:03;;;;;;;12.50;4.03;;;;;;;20.69;39.82;103026.31;5092580;28;20024;-44
2023/05/27 05:38:29;;;;;;;13.10;3.90;;;;;;;20.18;39.32;103018.03;5092860;28;20079;-49
2023/05/27 05:40:55;;;;;;;15.07;3.97;;;;;;;20.64;39.35;103019.25;5092988;28;20115;-46
2023/05/27 05:43:20;;;;;;;12.73;3.72;;;;;;;20.98;37.75;103022.09;5092610;28;20063;-48
2023/05/27 05:45:46;;;;;;;13.52;4.15;;;;;;;21.15;38.57;103017.75;5092955;28;20344;-47
2023/05/27 05:48:11;;;;;;;9.85;3.97;;;;;;;21.34;37.17;103010.75;5092644;28;20036;-46
2023/05/27 05:50:36;;;;;;;15.32;3.80;;;;;;;21.38;37.55;103010.75;5074657;28;20039;-46
2023/05/27 05:53:02;;;;;;;11.80;3.83;;;;;;;21.74;37.48;103011.69;5091875;28;20527;-52
2023/05/27 05:55:27;;;;;;;14.73;4.15;;;;;;;21.42;37.28;103009.88;5092688;28;20039;-48
2023/05/27 05:57:52;;;;;;;13.68;3.97;;;;;;;21.78;36.44;103011.69;5093101;28;20032;-47
2023/05/27 06:00:18;;;;;;;13.32;3.80;;;;;;;22.31;35.30;103009.94;5092571;28;20043;-46
2023/05/27 06:02:43;;;;;;;12.15;4.32;;;;;;;22.26;35.62;103009.97;5092778;28;20060;-46
2023/05/27 06:05:09;;;;;;;11.82;4.32;;;;;;;22.40;35.20;103009.91;5092246;28;20043;-47
2023/05/27 06:07:34;;;;;;;11.40;3.47;;;;;;;22.71;34.52;103006.31;5092595;28;20036;-48
2023/05/27 06:10:00;;;;;;;13.43;3.67;;;;;;;22.98;34.37;103000.03;5091983;28;20121;-45
2023/05/27 06:12:25;;;;;;;18.27;4.18;;;;;;;22.27;34.83;103003.75;5091970;28;20032;-48
2023/05/27 06:14:51;;;;;;;11.23;3.58;;;;;;;22.99;34.66;102988.50;5092498;28;20085;-45
2023/05/27 06:17:16;;;;;;;12.20;3.50;;;;;;;23.56;33.67;102997.94;5091415;28;20024;-47
2023/05/27 06:19:42;;;;;;;11.68;3.83;;;;;;;23.62;33.93;102991.69;5092273;28;20085;-48
2023/05/27 06:22:07;;;;;;;16.63;3.70;;;;;;;23.47;33.17;102986.50;5091491;28;20032;-51
2023/05/27 06:24:32;;;;;;;12.60;3.75;;;;;;;23.35;33.87;102983.00;5092141;28;20667;-48
2023/05/27 06:26:58;;;;;;;12.23;4.00;;;;;;;24.15;32.43;102973.47;5091614;28;20063;-49
2023/05/27 06:29:23;;;;;;;16.25;3.88;;;;;;;23.74;32.55;102968.53;5092352;28;20119;-45
2023/05/27 06:31:48;;;;;;;13.80;3.97;;;;;;;24.23;32.56;102961.00;5092170;28;20033;-45
2023/05/27 06:34:16;;;;;;;12.18;4.03;;;;;;;23.38;33.34;102969.66;5091399;28;20036;-51
2023/05/27 06:36:41;;;;;;;13.35;3.63;;;;;;;23.76;32.35;102955.19;5092483;28;20064;-50
2023/05/27 06:39:06;;;;;;;12.63;4.00;;;;;;;23.70;32.83;102957.91;5091393;28;20564;-51
2023/05/27 06:41:31;;;;;;;11.48;3.80;;;;;;;23.70;32.63;102957.91;5091993;28;20028;-48
2023/05/27 06:43:57;;;;;;;12.57;3.60;;;;;;;23.80;32.48;102955.16;5090972;28;20203;-47
2023/05/27 06:46:22;;;;;;;11.70;3.33;;;;;;;24.67;31.19;102959.59;5091804;28;20055;-47
2023/05/27 06:48:47;;;;;;;11.95;3.40;;;;;;;24.64;31.35;102967.66;5091786;28;20040;-46
2023/05/27 06:51:14;;;;;;;16.15;3.83;;;;;;;24.24;32.58;102957.44;5091197;28;20054;-50
2023/05/27 06:53:40;;;;;;;13.05;3.65;;;;;;;24.36;31.58;102955.53;5091451;28;20032;-46
2023/05/27 06:56:05;;;;;;;10.00;3.50;;;;;;;24.71;31.69;102960.44;5091140;28;20047;-51
2023/05/27 06:58:30;;;;;;;13.32;3.65;;;;;;;23.86;32.63;102957.75;5091672;28;20048;-47
2023/05/27 07:00:56;;;;;;;17.38;3.90;;;;;;;24.24;32.06;102956.53;5091427;28;20047;-48
2023/05/27 07:03:21;;;;;;;11.63;3.92;;;;;;;24.49;31.83;102959.81;5091190;28;20447;-47
2023/05/27 07:05:46;;;;;;;12.18;3.60;;;;;;;24.70;31.92;102958.72;5092034;28;20044;-46
2023/05/27 07:08:13;;;;;;;11.82;4.25;;;;;;;24.88;31.24;102954.00;5097485;28;20028;-49
2023/05/27 07:10:38;;;;;;;13.60;3.90;;;;;;;25.13;31.46;102962.56;5103322;28;20044;-47
2023/05/27 07:13:04;;;;;;;11.98;3.70;;;;;;;25.50;30.05;102948.66;5100958;28;20085;-49
2023/05/27 07:15:30;;;;;;;16.17;4.40;;;;;;;25.46;29.82;102948.72;5094450;28;20494;-47
2023/05/27 07:17:56;;;;;;;14.95;4.03;;;;;;;24.94;31.17;102950.41;5090718;28;20036;-47
2023/05/27 07:20:21;;;;;;;11.55;3.88;;;;;;;25.49;30.92;102944.25;5091104;28;20039;-46
2023/05/27 07:22:46;;;;;;;14.63;4.18;;;;;;;25.70;30.23;102939.47;5091044;28;20383;-50
2023/05/27 07:25:11;;;;;;;13.95;4.07;;;;;;;25.59;30.89;102944.13;5090534;28;20032;-47
2023/05/27 07:27:37;;;;;;;13.48;4.03;;;;;;;25.21;30.76;102943.78;5091720;28;20039;-47
2023/05/27 07:30:03;;;;;;;11.13;3.72;;;;;;;25.82;29.98;102939.25;5090221;28;20120;-46
2023/05/27 07:32:28;;;;;;;14.48;4.30;;;;;;;25.70;30.08;102938.59;5090534;28;20039;-47
2023/05/27 07:34:54;;;;;;;11.82;3.70;;;;;;;25.68;30.07;102933.25;5090358;28;20508;-48
2023/05/27 07:37:19;;;;;;;14.65;3.92;;;;;;;25.57;30.71;102937.03;5090745;28;20036;-50
2023/05/27 07:39:44;;;;;;;13.30;4.25;;;;;;;25.75;30.38;102934.94;5090828;28;20036;-47
2023/05/27 07:42:09;;;;;;;12.05;4.38;;;;;;;25.48;30.56;102937.16;5090187;28;20090;-45
2023/05/27 07:44:35;;;;;;;13.95;4.18;;;;;;;25.86;30.17;102932.94;5090708;28;20044;-46
2023/05/27 07:47:00;;;;;;;13.30;4.20;;;;;;;26.10;29.64;102934.31;5090275;28;20024;-51
2023/05/27 07:49:25;;;;;;;10.85;3.88;;;;;;;26.81;28.74;102929.31;5090988;28;20490;-51
2023/05/27 07:51:51;;;;;;;16.45;4.65;;;;;;;26.18;29.00;102926.13;5090496;28;20058;-49
2023/05/27 07:54:16;;;;;;;12.05;3.92;;;;;;;26.63;29.03;102924.38;5089977;28;20034;-46
2023/05/27 07:56:42;;;;;;;15.52;4.30;;;;;;;26.45;29.49;102922.94;5090298;28;20032;-53
2023/05/27 07:59:07;;;;;;;15.65;4.53;;;;;;;25.67;30.29;102928.84;5089811;28;20063;-45
2023/05/27 08:01:32;;;;;;;13.98;4.05;;;;;;;26.69;28.71;102918.88;5090284;28;20092;-50
2023/05/27 08:03:59;;;;;;;10.65;3.78;;;;;;;26.49;28.94;102926.44;5089617;28;20161;-46
2023/05/27 08:06:24;;;;;;;13.75;4.03;;;;;;;26.81;28.28;102915.94;5090379;28;20032;-52
2023/05/27 08:08:50;;;;;;;11.13;4.00;;;;;;;26.86;28.61;102914.03;5090019;28;20510;-50
2023/05/27 08:11:15;;;;;;;13.82;4.50;;;;;;;26.06;29.91;102916.53;5089560;28;20115;-46
2023/05/27 08:13:41;;;;;;;14.57;4.60;;;;;;;25.63;30.36;102912.88;5089350;28;20032;-50
2023/05/27 08:16:06;;;;;;;11.43;4.15;;;;;;;25.94;29.85;102915.88;5089279;28;20598;-47
2023/05/27 08:18:32;;;;;;;12.10;4.47;;;;;;;26.36;29.58;102914.22;5089896;28;20108;-52
2023/05/27 08:20:57;;;;;;;11.15;4.03;;;;;;;26.64;28.05;102892.22;5089695;28;20449;-51
2023/05/27 08:23:22;;;;;;;12.38;4.35;;;;;;;26.53;28.95;102896.06;5089400;28;20401;-48
2023/05/27 08:25:48;;;;;;;12.07;4.13;;;;;;;26.10;29.03;102887.97;5090110;28;20401;-47
2023/05/27 08:28:13;;;;;;;14.77;4.40;;;;;;;25.38;29.93;102891.00;5089430;28;20040;-46
2023/05/27 08:30:39;;;;;;;14.43;4.70;;;;;;;24.18;32.90;102882.88;5089018;28;20119;-50
2023/05/27 08:33:05;;;;;;;14.00;4.47;;;;;;;23.79;32.33;102883.25;5088818;28;20124;-50
2023/05/27 08:35:30;;;;;;;13.90;4.40;;;;;;;22.50;34.54;102873.47;5089981;28;20436;-50
2023/05/27 08:37:55;;;;;;;16.08;4.90;;;;;;;22.08;35.91;102885.97;5088974;28;20043;-48
2023/05/27 08:40:21;;;;;;;17.05;5.00;;;;;;;21.62;36.90;102877.19;5089882;28;20038;-48
2023/05/27 08:42:49;;;;;;;17.70;4.78;;;;;;;21.34;38.11;102875.44;5089669;28;20032;-51
2023/05/27 08:45:15;;;;;;;14.63;5.03;;;;;;;21.59;37.89;102868.34;5089450;28;20143;-48
2023/05/27 08:47:41;;;;;;;16.02;4.70;;;;;;;21.81;38.15;102863.00;5089725;28;20498;-48
2023/05/27 08:50:07;;;;;;;15.30;4.93;;;;;;;21.94;38.97;102857.66;5089527;28;20051;-49
2023/05/27 08:52:33;;;;;;;18.13;5.55;;;;;;;21.36;39.66;102855.94;5089619;28;20047;-49
2023/05/27 08:54:59;;;;;;;15.43;4.93;;;;;;;21.06;38.69;102851.47;5090828;28;20103;-50
2023/05/27 08:57:29;;;;;;;14.57;5.53;;;;;;;20.86;39.37;102855.84;5091155;28;20036;-53
2023/05/27 08:59:55;;;;;;;16.92;5.22;;;;;;;21.04;39.66;102853.22;5089148;28;20137;-50
2023/05/27 09:02:21;;;;;;;18.17;5.20;;;;;;;20.93;39.38;102838.19;5089085;28;20036;-51
2023/05/27 09:04:48;;;;;;;15.43;5.20;;;;;;;21.04;39.20;102845.28;5089684;28;20067;-46
2023/05/27 09:07:14;;;;;;;15.70;5.30;;;;;;;20.55;40.64;102838.97;5088797;28;20082;-50
2023/05/27 09:09:40;;;;;;;17.60;5.47;;;;;;;20.46;40.87;102832.78;5089597;28;20435;-48
2023/05/27 09:12:08;;;;;;;16.27;5.13;;;;;;;20.54;40.67;102829.28;5088124;28;20117;-48
2023/05/27 09:14:37;;;;;;;15.18;5.43;;;;;;;20.43;39.87;102832.78;5089352;28;20046;-51
2023/05/27 09:17:07;;;;;;;19.33;5.50;;;;;;;20.91;40.68;102832.03;5089002;28;20067;-46
2023/05/27 09:19:32;;;;;;;17.85;5.18;;;;;;;20.90;40.61;102828.47;5089601;28;20047;-46
2023/05/27 09:21:58;;;;;;;14.10;4.90;;;;;;;20.65;39.29;102826.66;5088509;28;20036;-48
2023/05/27 09:24:24;;;;;;;20.80;4.82;;;;;;;21.18;39.15;102824.09;5089045;28;20036;-48
2023/05/27 09:26:55;;;;;;;13.50;4.90;;;;;;;21.26;38.48;102821.47;5089326;28;20509;-47
2023/05/27 09:29:27;;;;;;;14.57;4.55;;;;;;;21.36;38.53;102828.53;5080938;28;20093;-49
2023/05/27 09:31:55;;;;;;;16.00;5.00;;;;;;;21.28;38.55;102817.94;5089049;28;20039;-52
2023/05/27 09:34:21;;;;;;;16.70;5.18;;;;;;;21.01;40.10;102821.41;5088748;28;20036;-47
2023/05/27 09:36:51;;;;;;;14.98;4.93;;;;;;;21.04;39.68;102818.75;5089382;28;20379;-50
2023/05/27 09:39:22;;;;;;;19.90;5.28;;;;;;;20.95;39.98;102815.22;5088733;28;20044;-45
2023/05/27 09:41:53;;;;;;;16.20;5.47;;;;;;;20.81;39.83;102819.59;5089038;28;20486;-42
2023/05/27 09:44:18;;;;;;;13.98;5.22;;;;;;;21.18;39.22;102816.16;5070708;28;20032;-47
2023/05/27 09:46:45;;;;;;;14.43;5.20;;;;;;;21.41;39.77;102817.03;5089156;28;20034;-48
2023/05/27 09:49:14;;;;;;;20.65;5.82;;;;;;;21.64;38.60;102817.03;5088597;28;20036;-46
2023/05/27 09:51:40;;;;;;;16.98;5.60;;;;;;;21.19;39.12;102814.38;5089199;28;20093;-47
2023/05/27 09:54:06;;;;;;;18.60;5.57;;;;;;;21.42;38.92;102812.59;5089692;28;20036;-46
2023/05/27 09:56:33;;;;;;;13.50;4.97;;;;;;;21.58;38.36;102808.19;5092772;28;20059;-48
2023/05/27 09:59:00;;;;;;;14.32;5.32;;;;;;;21.56;39.28;102818.78;5090631;28;20041;-45
2023/05/27 10:01:28;;;;;;;17.58;5.50;;;;;;;21.13;39.66;102807.28;5092792;28;20040;-50
2023/05/27 10:03:54;;;;;;;21.27;5.03;;;;;;;21.45;39.23;102804.66;5092030;28;20036;-46
2023/05/27 10:06:20;;;;;;;18.52;5.68;;;;;;;21.42;38.69;102804.66;5090282;28;20039;-47
2023/05/27 10:08:46;;;;;;;19.83;5.38;;;;;;;21.56;39.11;102797.56;5092740;28;20036;-45
2023/05/27 10:11:11;;;;;;;18.05;5.57;;;;;;;21.80;38.69;102794.84;5074490;28;20036;-45
2023/05/27 10:13:37;;;;;;;18.85;5.80;;;;;;;21.74;38.55;102804.59;5092240;28;20056;-45
2023/05/27 10:16:03;;;;;;;17.90;5.93;;;;;;;21.53;38.51;102794.03;5091673;28;20028;-47
2023/05/27 10:18:30;;;;;;;18.23;5.53;;;;;;;21.31;39.22;102790.50;5092406;28;20379;-46
2023/05/27 10:20:59;;;;;;;17.08;5.68;;;;;;;21.75;38.31;102788.69;5091986;28;20044;-47
2023/05/27 10:23:26;;;;;;;17.15;5.35;;;;;;;22.00;38.39;102783.31;5092033;28;20043;-48
2023/05/27 10:25:53;;;;;;;17.73;5.68;;;;;;;21.93;38.09;102781.53;5072390;28;20040;-47
2023/05/27 10:28:31;;;;;;;20.83;6.30;;;;;;;21.90;38.46;102771.78;5091840;28;20504;-46
2023/05/27 10:31:16;;;;;;;15.50;5.53;;;;;;;22.14;37.65;102768.22;5092122;28;20036;-47
2023/05/27 10:33:44;;;;;;;15.85;5.35;;;;;;;22.15;37.98;102759.34;5091818;28;20032;-45
2023/05/27 10:36:14;;;;;;;18.45;5.38;;;;;;;22.65;37.49;102757.28;5092085;28;20059;-48
2023/05/27 10:38:54;;;;;;;15.18;5.43;;;;;;;22.32;37.27;102757.50;5092268;28;20104;-49
2023/05/27 10:41:20;;;;;;;21.30;6.05;;;;;;;22.07;37.46;102758.50;5092110;28;20032;-52
2023/05/27 10:43:55;;;;;;;15.85;5.85;;;;;;;21.94;38.08;102751.44;5092399;28;20085;-45
2023/05/27 10:46:20;;;;;;;17.85;5.72;;;;;;;22.46;37.02;102746.75;5091869;28;20040;-45
2023/05/27 10:48:45;;;;;;;18.30;6.35;;;;;;;22.26;36.68;102758.38;5091834;28;20120;-47
2023/05/27 10:51:11;;;;;;;14.05;5.65;;;;;;;22.43;37.19;102747.69;5091447;28;20066;-45
2023/05/27 10:53:37;;;;;;;13.63;5.40;;;;;;;22.15;37.39;102744.28;5091492;28;20036;-46
2023/05/27 10:56:03;;;;;;;16.55;5.97;;;;;;;22.31;38.07;102725.63;5091403;28;20488;-50
2023/05/27 10:58:29;;;;;;;15.85;6.03;;;;;;;22.35;37.16;102724.69;5089648;28;20410;-50
2023/05/27 11:00:58;;;;;;;18.38;5.93;;;;;;;22.36;37.96;102731.78;5091276;28;20032;-45
2023/05/27 11:03:27;;;;;;;13.60;5.40;;;;;;;22.77;36.56;102728.88;5091338;28;20505;-47
2023/05/27 11:06:06;;;;;;;16.48;5.80;;;;;;;22.56;37.07;102721.91;5090361;28;20043;-45
2023/05/27 11:08:32;;;;;;;16.05;6.03;;;;;;;22.43;37.01;102715.78;5090274;28;20513;-48
2023/05/27 11:11:08;;;;;;;17.73;6.20;;;;;;;22.72;37.09;102718.28;5091894;28;20045;-46
2023/05/27 11:13:44;;;;;;;14.98;6.47;;;;;;;22.54;37.53;102711.28;5091704;28;20036;-47